Time;durP1;ratioP1;P1;durP2;ratioP2;P2;SDS_P1;SDS_P2;PMS_P1;PMS_P2;Temp;Humidity;BMP_temperature;BMP_pressure;BME280_temperature;BME280_humidity;BME280_pressure;Samples;Min_cycle;Max_cycle;Signal;HPM_P1;HPM_P2
2023/07/03 00:00:51;;;;;;;8.27;4.88;;;;;;;21.56;57.88;100916.00;4976953;28;20062;-44
2023/07/03 00:03:17;;;;;;;7.55;4.30;;;;;;;21.80;59.96;100922.44;4976820;28;20062;-44
2023/07/03 00:05:44;;;;;;;6.20;3.78;;;;;;;21.84;57.52;100920.78;4976774;28;20070;-44
2023/07/03 00:08:11;;;;;;;5.57;3.17;;;;;;;21.68;58.35;100915.69;4976892;28;20031;-45
2023/07/03 00:10:37;;;;;;;5.18;3.90;;;;;;;21.83;56.43;100918.34;4976721;28;20053;-45
2023/07/03 00:13:04;;;;;;;7.95;3.75;;;;;;;21.65;57.75;100918.94;4976976;28;20077;-46
2023/07/03 00:15:31;;;;;;;6.45;3.58;;;;;;;21.53;57.56;100911.09;4975669;28;20027;-45
2023/07/03 00:17:57;;;;;;;9.57;4.38;;;;;;;21.41;57.55;100914.13;4976641;28;20027;-44
2023/07/03 00:20:23;;;;;;;8.73;4.47;;;;;;;20.80;60.18;100912.28;4976589;28;20034;-45
2023/07/03 00:22:51;;;;;;;7.63;4.60;;;;;;;20.89;60.28;100911.75;4976918;28;20022;-44
2023/07/03 00:25:17;;;;;;;6.72;4.20;;;;;;;21.28;59.40;100914.69;4976787;28;20130;-47
2023/07/03 00:27:44;;;;;;;5.20;3.65;;;;;;;21.32;58.75;100913.91;4976418;28;20505;-47
2023/07/03 00:30:11;;;;;;;8.32;4.25;;;;;;;20.93;58.92;100910.09;4976374;28;20056;-45
2023/07/03 00:32:37;;;;;;;6.88;3.95;;;;;;;20.36;60.59;100911.13;4976719;28;20027;-46
2023/07/03 00:35:04;;;;;;;8.35;3.92;;;;;;;20.47;60.60;100901.94;4976836;28;20035;-47
2023/07/03 00:37:30;;;;;;;9.93;4.00;;;;;;;20.28;61.92;100893.47;4976386;28;20030;-47
2023/07/03 00:39:57;;;;;;;9.75;4.85;;;;;;;20.69;60.15;100888.06;4976237;28;20066;-47
2023/07/03 00:42:25;;;;;;;10.02;4.30;;;;;;;20.59;60.55;100883.44;4976609;28;20026;-45
2023/07/03 00:44:51;;;;;;;11.27;4.65;;;;;;;20.76;59.45;100881.25;4949852;29;20051;-45
2023/07/03 00:47:17;;;;;;;16.38;5.53;;;;;;;20.75;59.17;100889.69;4957019;29;20110;-46
2023/07/03 00:49:44;;;;;;;8.05;4.03;;;;;;;20.67;59.60;100884.81;4956855;29;20035;-47
2023/07/03 00:52:12;;;;;;;9.70;4.20;;;;;;;20.21;61.20;100899.16;4956350;29;20115;-44
2023/07/03 00:54:41;;;;;;;8.77;3.95;;;;;;;20.10;61.99;100889.34;4956479;29;20034;-44
2023/07/03 00:57:12;;;;;;;6.65;3.67;;;;;;;19.75;62.96;100896.28;4956623;29;20055;-45
2023/07/03 00:59:38;;;;;;;8.52;4.38;;;;;;;19.89;63.48;100884.94;4956686;29;20066;-47
2023/07/03 01:02:20;;;;;;;8.13;3.75;;;;;;;19.97;63.51;100887.13;4939503;29;20031;-43
2023/07/03 01:04:54;;;;;;;7.70;4.10;;;;;;;19.92;63.56;100887.09;4956626;29;20031;-43
2023/07/03 01:07:28;;;;;;;6.88;3.88;;;;;;;19.50;65.00;100890.72;4956500;29;20506;-44
2023/07/03 01:10:02;;;;;;;5.22;3.88;;;;;;;19.50;64.74;100888.81;4956479;29;20039;-43
2023/07/03 01:12:32;;;;;;;9.15;5.30;;;;;;;19.36;66.04;100886.84;4956422;29;20070;-45
2023/07/03 01:15:03;;;;;;;7.28;4.43;;;;;;;19.14;67.43;100876.94;4956322;29;20031;-48
2023/07/03 01:17:31;;;;;;;8.40;4.60;;;;;;;19.32;66.44;100883.00;4956240;29;20031;-45
2023/07/03 01:20:00;;;;;;;7.15;4.40;;;;;;;18.84;68.06;100874.84;4956375;29;20393;-48
2023/07/03 01:22:36;;;;;;;8.88;4.25;;;;;;;19.00;68.01;100875.78;4955983;29;20019;-46
2023/07/03 01:25:09;;;;;;;7.20;3.70;;;;;;;19.17;67.62;100871.00;4956042;29;20055;-48
2023/07/03 01:27:39;;;;;;;8.63;5.43;;;;;;;19.26;67.25;100871.31;4955997;28;20027;-47
2023/07/03 01:30:09;;;;;;;10.98;4.93;;;;;;;19.14;67.35;100867.97;4955774;29;20117;-48
2023/07/03 01:32:39;;;;;;;9.85;4.60;;;;;;;18.53;69.33;100860.19;4956707;29;20047;-48
2023/07/03 01:35:11;;;;;;;7.25;5.05;;;;;;;18.58;70.08;100862.94;4955901;29;20409;-48
2023/07/03 01:37:41;;;;;;;6.85;4.55;;;;;;;18.74;69.54;100866.63;4955951;29;20420;-48
2023/07/03 01:40:10;;;;;;;10.30;3.83;;;;;;;18.88;68.60;100869.72;4955814;29;20456;-47
2023/07/03 01:42:40;;;;;;;8.57;4.22;;;;;;;18.76;68.24;100861.75;4955633;29;20034;-49
2023/07/03 01:45:08;;;;;;;8.60;4.78;;;;;;;18.72;68.34;100861.47;4966837;28;20129;-46
2023/07/03 01:47:36;;;;;;;9.20;3.78;;;;;;;18.98;68.03;100872.47;4975863;28;20090;-48
2023/07/03 01:50:07;;;;;;;8.88;3.67;;;;;;;18.81;67.95;100867.22;4974284;28;20035;-46
2023/07/03 01:52:55;;;;;;;10.95;3.92;;;;;;;18.98;67.81;100869.78;4974762;28;20030;-47
2023/07/03 01:55:36;;;;;;;7.38;3.60;;;;;;;18.78;68.68;100869.66;4974778;28;20027;-48
2023/07/03 01:58:11;;;;;;;5.85;3.60;;;;;;;18.70;69.40;100862.78;4974773;28;20027;-46
2023/07/03 02:00:57;;;;;;;8.80;4.10;;;;;;;19.07;68.09;100868.22;4974809;28;20390;-44
2023/07/03 02:03:42;;;;;;;9.38;3.63;;;;;;;19.19;67.24;100870.72;4974697;28;20530;-44
2023/07/03 02:06:22;;;;;;;6.35;3.72;;;;;;;18.98;67.76;100873.31;4959757;28;20431;-44
2023/07/03 02:08:51;;;;;;;6.13;2.88;;;;;;;18.98;67.33;100870.59;4957661;28;20062;-44
2023/07/03 02:11:20;;;;;;;6.05;3.35;;;;;;;19.33;66.27;100876.53;4974650;28;20027;-47
2023/07/03 02:13:47;;;;;;;4.65;2.75;;;;;;;19.12;66.50;100872.88;4974342;28;20030;-45
2023/07/03 02:16:15;;;;;;;6.68;2.67;;;;;;;19.04;66.86;100873.34;4974289;28;20412;-48
2023/07/03 02:18:42;;;;;;;6.32;3.45;;;;;;;19.01;67.02;100868.44;4957655;28;20073;-47
2023/07/03 02:21:09;;;;;;;6.85;3.55;;;;;;;19.29;65.42;100870.78;4974411;28;20038;-44
2023/07/03 02:23:35;;;;;;;5.80;3.25;;;;;;;19.25;65.74;100867.78;4974468;28;20038;-48
2023/07/03 02:26:01;;;;;;;6.53;3.35;;;;;;;19.45;65.13;100863.53;4974346;28;20109;-47
2023/07/03 02:28:27;;;;;;;7.20;3.72;;;;;;;19.50;64.92;100866.28;4974341;28;20027;-48
2023/07/03 02:30:54;;;;;;;8.32;3.85;;;;;;;19.36;65.75;100859.69;4974315;28;20054;-47
2023/07/03 02:33:20;;;;;;;6.53;3.55;;;;;;;19.43;65.83;100865.69;4974276;28;20051;-47
2023/07/03 02:35:46;;;;;;;6.50;3.72;;;;;;;19.50;64.69;100869.81;4974318;28;20034;-48
2023/07/03 02:38:14;;;;;;;6.68;3.88;;;;;;;19.26;65.82;100872.13;4974243;28;20023;-49
2023/07/03 02:40:41;;;;;;;7.95;4.72;;;;;;;19.15;66.38;100873.13;4974221;28;20038;-48
2023/07/03 02:43:09;;;;;;;7.80;3.60;;;;;;;19.29;65.69;100870.78;4974044;28;20391;-48
2023/07/03 02:45:40;;;;;;;6.47;4.20;;;;;;;19.36;65.31;100873.25;4973935;28;20050;-44
2023/07/03 02:48:07;;;;;;;9.43;4.40;;;;;;;19.03;66.43;100872.53;4974118;28;20035;-48
2023/07/03 02:50:34;;;;;;;5.75;4.35;;;;;;;18.94;67.09;100879.53;4974104;28;20109;-45
2023/07/03 02:53:00;;;;;;;7.20;4.60;;;;;;;18.38;68.60;100871.72;4974132;28;20038;-48
2023/07/03 02:55:27;;;;;;;10.73;4.60;;;;;;;18.31;69.24;100868.38;4974033;28;20054;-48
2023/07/03 02:57:57;;;;;;;6.20;3.80;;;;;;;18.07;70.30;100876.00;4974569;28;20027;-47
2023/07/03 03:00:24;;;;;;;8.18;4.15;;;;;;;17.87;71.15;100871.19;4974018;28;20554;-47
2023/07/03 03:02:50;;;;;;;8.48;4.20;;;;;;;17.78;71.69;100878.13;4974165;28;20027;-45
2023/07/03 03:05:17;;;;;;;8.57;4.72;;;;;;;17.52;72.69;100876.16;4974083;28;20023;-45
2023/07/03 03:07:43;;;;;;;7.35;4.80;;;;;;;16.94;75.66;100877.50;4973930;28;20030;-46
2023/07/03 03:10:09;;;;;;;6.22;4.40;;;;;;;16.71;77.16;100876.63;4973960;28;20034;-46
2023/07/03 03:12:36;;;;;;;9.90;5.32;;;;;;;16.37;78.60;100878.41;4973945;28;20391;-45
2023/07/03 03:15:02;;;;;;;10.88;5.32;;;;;;;15.99;81.01;100879.06;4973930;28;20388;-48
2023/07/03 03:17:29;;;;;;;10.63;5.22;;;;;;;16.03;81.30;100878.34;4973891;28;20027;-50
2023/07/03 03:19:55;;;;;;;10.40;5.68;;;;;;;15.87;82.00;100871.00;4974336;28;20034;-47
2023/07/03 03:22:21;;;;;;;16.27;8.02;;;;;;;15.78;82.45;100881.38;4974433;28;20528;-49
2023/07/03 03:24:47;;;;;;;10.75;5.95;;;;;;;15.87;82.31;100879.09;4973770;28;20050;-49
2023/07/03 03:27:14;;;;;;;9.18;4.97;;;;;;;15.53;83.72;100884.31;4973788;28;20027;-50
2023/07/03 03:29:40;;;;;;;12.20;6.28;;;;;;;15.37;85.53;100893.16;4973717;28;20031;-46
2023/07/03 03:32:08;;;;;;;8.88;5.70;;;;;;;15.59;84.82;100894.16;4973875;28;20476;-49
2023/07/03 03:34:34;;;;;;;10.00;5.75;;;;;;;15.30;85.79;100898.66;4974089;28;20491;-46
2023/07/03 03:37:02;;;;;;;8.18;5.32;;;;;;;15.32;86.01;100893.88;4973714;28;20130;-47
2023/07/03 03:39:28;;;;;;;14.35;5.60;;;;;;;15.38;86.08;100885.88;4973689;28;20479;-48
2023/07/03 03:41:54;;;;;;;14.32;6.90;;;;;;;15.15;87.29;100894.81;4973619;28;20026;-48
2023/07/03 03:44:21;;;;;;;10.68;6.97;;;;;;;15.11;87.50;100899.84;4973455;28;20047;-47
2023/07/03 03:46:47;;;;;;;11.55;5.78;;;;;;;15.13;87.62;100895.03;4973680;28;20042;-49
2023/07/03 03:49:13;;;;;;;10.00;6.35;;;;;;;14.93;88.89;100913.44;4974486;28;20035;-48
2023/07/03 03:51:40;;;;;;;10.77;6.47;;;;;;;14.67;90.69;100912.00;4977402;28;20105;-49
2023/07/03 03:54:08;;;;;;;11.65;6.03;;;;;;;14.85;90.03;100913.78;4977155;28;20023;-46
2023/07/03 03:56:34;;;;;;;9.70;5.50;;;;;;;14.74;90.54;100918.91;4977306;28;20038;-46
2023/07/03 03:59:01;;;;;;;9.68;5.10;;;;;;;14.70;90.80;100915.03;4976925;28;20391;-44
2023/07/03 04:01:27;;;;;;;8.32;4.55;;;;;;;14.55;91.38;100917.38;4976966;28;20027;-45
2023/07/03 04:03:54;;;;;;;10.63;5.80;;;;;;;14.46;92.09;100913.31;4976984;28;20035;-47
2023/07/03 04:06:20;;;;;;;15.32;6.15;;;;;;;14.48;92.10;100914.75;4977197;28;20031;-45
2023/07/03 04:08:46;;;;;;;7.75;4.75;;;;;;;14.54;91.98;100921.09;4976754;28;20030;-44
2023/07/03 04:11:13;;;;;;;12.70;4.85;;;;;;;14.38;92.63;100919.84;4976747;28;20030;-47
2023/07/03 04:13:40;;;;;;;11.20;5.03;;;;;;;14.29;92.86;100918.53;4976774;28;20022;-47
2023/07/03 04:16:06;;;;;;;7.88;5.18;;;;;;;14.31;93.11;100926.38;4976708;28;20026;-45
2023/07/03 04:18:32;;;;;;;14.40;5.93;;;;;;;14.18;93.88;100932.75;4977404;28;20102;-47
2023/07/03 04:20:59;;;;;;;10.18;5.43;;;;;;;14.14;94.40;100927.00;4976526;28;20031;-44
2023/07/03 04:23:26;;;;;;;9.00;5.47;;;;;;;14.19;94.59;100935.22;4976693;28;20027;-47
2023/07/03 04:25:53;;;;;;;9.07;4.38;;;;;;;14.12;95.26;100929.09;4976715;28;20392;-47
2023/07/03 04:28:21;;;;;;;8.05;5.32;;;;;;;14.20;95.27;100936.84;4976974;28;20069;-46
2023/07/03 04:30:47;;;;;;;13.50;5.65;;;;;;;14.11;95.16;100937.41;4976582;28;20118;-45
2023/07/03 04:33:14;;;;;;;8.25;4.38;;;;;;;14.16;95.55;100941.06;4976552;28;20027;-46
2023/07/03 04:35:41;;;;;;;10.52;5.18;;;;;;;14.16;95.73;100948.31;4976439;28;20049;-48
2023/07/03 04:38:08;;;;;;;9.80;4.95;;;;;;;14.15;95.62;100946.66;4976380;28;20055;-46
2023/07/03 04:40:34;;;;;;;6.30;4.40;;;;;;;14.06;95.98;100958.81;4976372;28;20035;-44
2023/07/03 04:43:01;;;;;;;9.98;4.55;;;;;;;14.11;95.40;100964.34;4976303;28;20105;-46
2023/07/03 04:45:30;;;;;;;9.10;3.90;;;;;;;14.07;96.31;100963.13;4976005;28;20047;-46
2023/07/03 04:47:56;;;;;;;13.85;5.13;;;;;;;14.00;96.64;100971.28;4976111;28;20399;-44
2023/07/03 04:50:24;;;;;;;11.07;4.80;;;;;;;14.21;95.77;100967.28;4976019;28;20038;-44
2023/07/03 04:52:51;;;;;;;11.27;5.55;;;;;;;14.15;95.89;100978.97;4976029;28;20479;-46
2023/07/03 04:55:18;;;;;;;11.27;5.57;;;;;;;14.13;95.90;100975.69;4975916;28;20101;-44
2023/07/03 04:57:45;;;;;;;8.60;6.10;;;;;;;13.99;96.88;100966.94;4976315;28;20042;-54
2023/07/03 05:00:15;;;;;;;8.38;5.53;;;;;;;14.15;95.92;100974.41;4975944;28;20393;-46
2023/07/03 05:02:43;;;;;;;10.35;4.45;;;;;;;14.07;96.49;100979.28;4975579;28;20082;-48
2023/07/03 05:05:12;;;;;;;9.48;4.25;;;;;;;14.07;96.81;100976.59;4976159;28;20427;-46
2023/07/03 05:07:39;;;;;;;7.53;4.47;;;;;;;14.06;96.38;100981.16;4975740;28;20027;-47
2023/07/03 05:10:08;;;;;;;12.43;4.35;;;;;;;14.03;96.80;100980.78;4975865;28;20039;-44
2023/07/03 05:12:34;;;;;;;9.18;3.90;;;;;;;13.97;96.85;100991.38;4976250;28;20372;-47
2023/07/03 05:15:02;;;;;;;5.72;3.85;;;;;;;13.94;97.46;100985.66;4975595;28;20114;-44
2023/07/03 05:17:28;;;;;;;7.68;4.13;;;;;;;13.99;97.51;100986.63;4975580;28;20030;-47
2023/07/03 05:19:54;;;;;;;9.10;4.18;;;;;;;13.94;97.24;100989.16;4975556;28;20026;-44
2023/07/03 05:22:21;;;;;;;7.38;3.95;;;;;;;14.00;97.09;100993.66;4975531;28;20055;-47
2023/07/03 05:24:49;;;;;;;14.48;5.88;;;;;;;13.93;97.62;100998.25;4975463;28;20054;-46
2023/07/03 05:27:15;;;;;;;12.73;5.10;;;;;;;13.97;98.21;100990.56;4975470;28;20035;-47
2023/07/03 05:29:41;;;;;;;11.38;5.60;;;;;;;13.99;97.88;100999.22;4975279;28;20022;-46
2023/07/03 05:32:08;;;;;;;14.95;5.85;;;;;;;14.03;98.00;100997.75;4975474;28;20033;-45
2023/07/03 05:34:37;;;;;;;9.52;4.68;;;;;;;13.92;98.57;101002.00;4975668;28;20078;-45
2023/07/03 05:37:05;;;;;;;12.23;4.80;;;;;;;13.97;98.92;100999.47;4975290;28;20042;-45
2023/07/03 05:39:31;;;;;;;9.85;4.68;;;;;;;14.04;98.02;100998.56;4975130;28;20026;-46
2023/07/03 05:41:57;;;;;;;13.45;5.57;;;;;;;13.91;99.45;101005.75;4975122;28;20027;-47
2023/07/03 05:44:23;;;;;;;11.75;5.30;;;;;;;13.93;99.97;101002.81;4974750;28;20504;-48
2023/07/03 05:46:52;;;;;;;12.75;5.93;;;;;;;13.83;100.00;101019.50;4975196;28;20502;-45
2023/07/03 05:49:19;;;;;;;14.18;6.68;;;;;;;13.87;100.00;101009.91;4974844;28;20078;-45
2023/07/03 05:51:45;;;;;;;15.00;5.63;;;;;;;13.92;99.85;101007.38;4975437;28;20030;-45
2023/07/03 05:54:11;;;;;;;13.93;5.40;;;;;;;14.03;99.28;101010.38;4974935;28;20019;-48
2023/07/03 05:56:37;;;;;;;16.13;6.53;;;;;;;14.04;98.69;101020.09;4975118;28;20019;-47
2023/07/03 05:59:04;;;;;;;11.70;5.90;;;;;;;14.08;98.88;101013.22;4974955;28;20027;-45
2023/07/03 06:01:30;;;;;;;12.95;5.47;;;;;;;14.04;99.30;101017.41;4974685;28;20037;-46
2023/07/03 06:03:56;;;;;;;20.27;6.93;;;;;;;13.93;100.00;101025.16;4975084;28;20058;-47
2023/07/03 06:06:22;;;;;;;18.27;6.20;;;;;;;14.08;99.55;101023.97;4974876;28;20097;-49
2023/07/03 06:08:49;;;;;;;13.02;4.82;;;;;;;14.14;99.02;101018.53;4974666;28;20054;-46
2023/07/03 06:11:15;;;;;;;15.77;6.38;;;;;;;14.14;99.16;101020.41;4974866;28;20037;-44
2023/07/03 06:13:41;;;;;;;14.52;6.10;;;;;;;14.12;99.28;101017.94;4973865;28;20037;-48
2023/07/03 06:16:07;;;;;;;13.95;5.18;;;;;;;14.13;98.92;101008.00;4974573;28;20023;-45
2023/07/03 06:18:34;;;;;;;17.48;5.82;;;;;;;14.17;98.91;101022.66;4974613;28;20046;-44
2023/07/03 06:21:00;;;;;;;21.60;6.30;;;;;;;14.11;98.74;101019.00;4974910;28;20531;-44
2023/07/03 06:23:26;;;;;;;15.52;6.22;;;;;;;14.18;98.28;101014.34;4974261;28;20118;-47
2023/07/03 06:25:52;;;;;;;11.85;6.13;;;;;;;14.15;98.33;101025.53;4974504;28;20483;-45
2023/07/03 06:28:19;;;;;;;16.25;5.65;;;;;;;14.17;99.00;101022.66;4974497;28;20042;-45
2023/07/03 06:30:49;;;;;;;13.55;5.68;;;;;;;14.23;98.55;101019.88;4974401;28;20103;-46
2023/07/03 06:33:15;;;;;;;10.88;5.10;;;;;;;14.17;98.73;101028.03;4974642;28;20059;-44
2023/07/03 06:35:42;;;;;;;13.93;6.05;;;;;;;14.22;98.29;101029.00;4974783;28;20034;-47
2023/07/03 06:38:08;;;;;;;17.75;6.20;;;;;;;14.19;98.68;101028.63;4974301;28;20119;-47
2023/07/03 06:40:34;;;;;;;12.98;5.68;;;;;;;14.23;98.33;101033.34;4974234;28;20101;-47
2023/07/03 06:43:01;;;;;;;21.58;6.80;;;;;;;14.26;98.34;101037.44;4974241;28;20029;-45
2023/07/03 06:45:27;;;;;;;12.50;4.88;;;;;;;14.24;98.19;101036.84;4974054;28;20039;-49
2023/07/03 06:47:53;;;;;;;9.68;4.53;;;;;;;14.29;97.56;101041.56;4974982;28;20086;-46
2023/07/03 06:50:19;;;;;;;11.30;5.07;;;;;;;14.28;97.72;101038.03;4974118;28;20439;-48
2023/07/03 06:52:47;;;;;;;11.32;4.57;;;;;;;14.31;97.17;101047.53;4974205;28;20086;-46
2023/07/03 06:55:13;;;;;;;15.93;5.20;;;;;;;14.23;97.53;101045.97;4974201;28;20065;-45
2023/07/03 06:57:39;;;;;;;14.52;5.55;;;;;;;14.03;98.95;101040.81;4974086;28;20067;-45
2023/07/03 07:00:07;;;;;;;13.57;4.90;;;;;;;14.10;98.78;101032.66;4974491;28;20022;-46
2023/07/03 07:02:33;;;;;;;9.77;4.75;;;;;;;14.09;99.21;101039.09;4974379;28;20023;-45
2023/07/03 07:05:00;;;;;;;14.27;5.65;;;;;;;14.06;99.50;101039.56;4974046;28;20027;-47
2023/07/03 07:07:26;;;;;;;13.77;4.85;;;;;;;14.19;98.79;101042.06;4973951;28;20034;-46
2023/07/03 07:09:53;;;;;;;14.80;5.25;;;;;;;14.12;98.76;101044.03;4973987;28;20027;-46
2023/07/03 07:12:19;;;;;;;16.05;4.95;;;;;;;14.20;98.66;101043.72;4974025;28;20431;-49
2023/07/03 07:14:45;;;;;;;14.10;5.22;;;;;;;14.21;98.64;101042.66;4974112;28;20058;-50
2023/07/03 07:17:11;;;;;;;20.20;6.47;;;;;;;14.27;97.97;101047.19;4974391;28;20023;-46
2023/07/03 07:19:37;;;;;;;15.90;5.75;;;;;;;14.34;97.83;101041.72;4973921;28;20535;-49
2023/07/03 07:22:04;;;;;;;20.33;6.75;;;;;;;14.14;98.95;101048.13;4973862;28;20033;-44
2023/07/03 07:24:30;;;;;;;13.55;5.93;;;;;;;14.18;99.22;101043.13;4975347;28;20027;-44
2023/07/03 07:26:58;;;;;;;15.63;6.32;;;;;;;14.30;98.68;101041.31;4977480;28;20022;-45
2023/07/03 07:29:25;;;;;;;20.67;6.32;;;;;;;14.22;98.70;101047.84;4977551;28;20027;-43
2023/07/03 07:31:55;;;;;;;17.55;6.00;;;;;;;14.39;97.96;101041.84;4977792;28;20090;-44
2023/07/03 07:34:22;;;;;;;14.93;5.20;;;;;;;14.49;97.21;101039.44;4977529;28;20027;-44
2023/07/03 07:36:48;;;;;;;11.32;4.53;;;;;;;14.52;96.77;101041.72;4977535;28;20082;-46
2023/07/03 07:39:14;;;;;;;10.98;4.63;;;;;;;14.45;96.61;101036.38;4977533;28;20027;-46
2023/07/03 07:41:41;;;;;;;18.50;5.72;;;;;;;14.45;97.00;101040.94;4977653;28;20026;-44
2023/07/03 07:44:07;;;;;;;14.45;5.85;;;;;;;14.35;98.10;101043.34;4977190;28;20520;-44
2023/07/03 07:46:36;;;;;;;19.85;6.07;;;;;;;14.18;98.95;101035.06;4977347;28;20030;-44
2023/07/03 07:49:02;;;;;;;14.40;5.63;;;;;;;14.33;98.09;101040.06;4977068;28;20114;-44
2023/07/03 07:51:29;;;;;;;18.75;5.75;;;;;;;14.33;98.12;101057.03;4977465;28;20030;-45
2023/07/03 07:53:57;;;;;;;15.02;6.03;;;;;;;14.30;98.33;101052.09;4977244;28;20030;-45
2023/07/03 07:56:24;;;;;;;19.48;5.38;;;;;;;14.24;98.70;101045.75;4977089;28;20037;-47
2023/07/03 07:58:51;;;;;;;23.17;7.13;;;;;;;14.23;98.31;101041.41;4959726;28;20407;-44
2023/07/03 08:01:18;;;;;;;16.13;6.15;;;;;;;14.23;98.84;101051.34;4977113;28;20026;-46
2023/07/03 08:03:44;;;;;;;23.27;6.07;;;;;;;14.27;98.32;101052.56;4977113;28;20063;-47
2023/07/03 08:06:12;;;;;;;19.38;6.43;;;;;;;14.28;98.95;101043.44;4977006;28;20050;-47
2023/07/03 08:08:39;;;;;;;17.05;5.85;;;;;;;14.25;98.53;101050.06;4959583;28;20412;-43
2023/07/03 08:11:07;;;;;;;15.38;5.28;;;;;;;14.22;99.21;101045.16;4977090;28;20041;-45
2023/07/03 08:13:35;;;;;;;15.65;5.95;;;;;;;14.21;99.34;101048.06;4976835;28;20019;-44
2023/07/03 08:16:02;;;;;;;14.43;5.43;;;;;;;14.25;98.84;101043.88;4976782;28;20127;-44
2023/07/03 08:18:29;;;;;;;12.50;4.80;;;;;;;14.29;98.31;101042.38;4976861;28;20086;-46
2023/07/03 08:20:55;;;;;;;19.20;5.80;;;;;;;14.17;99.33;101052.25;4976714;28;20035;-46
2023/07/03 08:23:21;;;;;;;12.18;4.20;;;;;;;14.19;98.19;101044.78;4976835;28;20033;-46
2023/07/03 08:25:53;;;;;;;14.40;4.85;;;;;;;14.11;99.01;101043.22;4977196;28;20121;-45
2023/07/03 08:28:21;;;;;;;12.55;4.10;;;;;;;14.07;98.77;101042.00;4976537;28;20029;-47
2023/07/03 08:30:47;;;;;;;13.25;3.85;;;;;;;13.93;99.25;101051.25;4976430;28;20034;-45
2023/07/03 08:33:14;;;;;;;12.85;4.03;;;;;;;13.89;99.73;101045.53;4976517;28;20027;-46
2023/07/03 08:35:41;;;;;;;11.68;2.72;;;;;;;13.86;100.00;101037.88;4975674;28;20096;-46
2023/07/03 08:38:09;;;;;;;15.45;3.08;;;;;;;13.82;100.00;101044.75;4976420;28;20031;-48
2023/07/03 08:40:35;;;;;;;14.15;3.15;;;;;;;13.89;100.00;101045.53;4976331;28;20070;-45
2023/07/03 08:43:02;;;;;;;13.18;3.20;;;;;;;13.90;100.00;101043.66;4976510;28;20021;-47
2023/07/03 08:45:46;;;;;;;13.48;3.47;;;;;;;13.81;100.00;101045.78;4976009;28;20054;-47
2023/07/03 08:48:24;;;;;;;14.85;4.10;;;;;;;13.87;100.00;101044.91;4976282;28;20042;-46
2023/07/03 08:50:59;;;;;;;15.02;4.35;;;;;;;13.86;100.00;101045.94;4976453;28;20068;-46
2023/07/03 08:53:34;;;;;;;16.98;4.60;;;;;;;13.86;100.00;101045.13;4976153;28;20459;-47
2023/07/03 08:56:08;;;;;;;13.00;4.47;;;;;;;13.74;100.00;101045.84;4976064;28;20562;-43
2023/07/03 08:58:34;;;;;;;40.42;6.03;;;;;;;13.80;100.00;101046.84;4976385;28;20023;-47
2023/07/03 09:01:22;;;;;;;15.27;4.40;;;;;;;13.82;100.00;101046.59;4976267;28;20035;-42
2023/07/03 09:03:48;;;;;;;20.77;4.60;;;;;;;13.84;100.00;101042.66;4975986;28;20053;-44
2023/07/03 09:06:33;;;;;;;19.77;5.90;;;;;;;13.83;100.00;101042.91;4975840;28;20106;-43
2023/07/03 09:09:11;;;;;;;15.35;4.47;;;;;;;13.81;100.00;101040.41;4975760;28;20383;-46
2023/07/03 09:11:41;;;;;;;23.45;4.85;;;;;;;13.74;100.00;101037.78;4976104;28;20114;-42
2023/07/03 09:14:11;;;;;;;9.88;3.80;;;;;;;13.80;100.00;101051.41;4975727;28;20030;-42
2023/07/03 09:16:41;;;;;;;12.10;4.65;;;;;;;13.82;100.00;101046.59;4975716;28;20081;-44
2023/07/03 09:19:20;;;;;;;30.42;5.75;;;;;;;13.86;100.00;101042.44;4975560;28;20390;-45
2023/07/03 09:21:51;;;;;;;17.95;5.95;;;;;;;13.93;100.00;101041.31;4975460;28;20109;-46
2023/07/03 09:24:22;;;;;;;15.77;5.55;;;;;;;13.90;100.00;101040.94;4975603;28;20038;-46
2023/07/03 09:26:59;;;;;;;11.05;5.90;;;;;;;13.92;100.00;101036.16;4975858;28;20025;-44
2023/07/03 09:29:27;;;;;;;15.27;6.05;;;;;;;13.96;100.00;101032.81;4975786;28;20117;-43
2023/07/03 09:31:55;;;;;;;18.13;6.68;;;;;;;13.94;100.00;101036.78;4975383;28;20030;-45
2023/07/03 09:34:21;;;;;;;22.60;6.50;;;;;;;13.94;100.00;101042.16;4975344;28;20019;-43
2023/07/03 09:36:58;;;;;;;18.52;5.95;;;;;;;13.99;100.00;101035.06;4975624;28;20034;-43
2023/07/03 09:39:25;;;;;;;24.65;7.38;;;;;;;13.97;100.00;101034.44;4975237;28;20034;-44
2023/07/03 09:41:53;;;;;;;17.17;5.95;;;;;;;13.99;100.00;101028.84;4975207;28;20105;-45
2023/07/03 09:44:22;;;;;;;11.02;5.57;;;;;;;13.97;100.00;101029.06;4975031;28;20047;-43
2023/07/03 09:46:49;;;;;;;17.83;6.00;;;;;;;13.99;100.00;101026.13;4974932;28;20026;-45
2023/07/03 09:49:20;;;;;;;16.75;6.00;;;;;;;14.05;100.00;101024.41;4974946;28;20033;-42
2023/07/03 09:51:50;;;;;;;24.02;7.18;;;;;;;14.05;100.00;101017.19;4957772;28;20113;-43
2023/07/03 09:54:22;;;;;;;16.63;6.35;;;;;;;14.18;100.00;101021.59;4975238;28;20061;-43
2023/07/03 09:56:49;;;;;;;20.27;6.18;;;;;;;14.03;100.00;101018.44;4974967;28;20031;-46
2023/07/03 09:59:19;;;;;;;17.40;6.43;;;;;;;14.04;100.00;101028.97;4974855;28;20105;-43
2023/07/03 10:01:47;;;;;;;19.35;6.35;;;;;;;14.07;100.00;101028.56;4974884;28;20027;-43
2023/07/03 10:04:15;;;;;;;12.63;5.40;;;;;;;13.98;100.00;101019.94;4975095;28;20038;-47
2023/07/03 10:07:04;;;;;;;13.95;5.47;;;;;;;13.97;100.00;101022.84;4974938;28;20388;-45
2023/07/03 10:09:35;;;;;;;24.00;5.38;;;;;;;13.83;100.00;101019.50;4974685;28;20030;-43
2023/07/03 10:12:16;;;;;;;14.05;4.70;;;;;;;13.86;100.00;101012.84;4974601;28;20033;-46
2023/07/03 10:14:47;;;;;;;24.95;5.32;;;;;;;13.76;100.00;101024.09;4974581;28;20023;-44
2023/07/03 10:17:15;;;;;;;10.40;3.75;;;;;;;13.82;100.00;101020.53;4974981;28;20022;-44
2023/07/03 10:19:50;;;;;;;13.30;4.05;;;;;;;13.85;100.00;101021.97;4974481;28;20491;-44
2023/07/03 10:22:18;;;;;;;12.13;4.80;;;;;;;13.84;100.00;101023.00;4974495;28;20431;-46
2023/07/03 10:24:46;;;;;;;10.23;4.72;;;;;;;13.86;100.00;101020.91;4974440;28;20094;-45
2023/07/03 10:27:14;;;;;;;17.98;5.03;;;;;;;13.86;100.00;101027.13;4974456;28;20022;-46
2023/07/03 10:29:49;;;;;;;10.80;4.72;;;;;;;13.85;100.00;101036.25;4974408;28;20039;-44
2023/07/03 10:32:17;;;;;;;;;;;;;;;13.87;100.00;101034.13;4975088;28;20497;-45
2023/07/03 10:35:13;;;;;;;16.38;4.95;;;;;;;13.86;100.00;101037.88;4974344;28;20333;-43
2023/07/03 10:38:06;;;;;;;9.35;4.90;;;;;;;13.85;100.00;101032.72;4972814;28;20105;-43
2023/07/03 10:40:55;;;;;;;13.20;4.82;;;;;;;13.87;100.00;101034.13;4944469;28;20126;-47
2023/07/03 10:43:24;;;;;;;21.90;6.45;;;;;;;13.86;100.00;101032.50;4974540;28;20102;-46
2023/07/03 10:45:52;;;;;;;13.65;5.10;;;;;;;13.90;100.00;101031.00;4974079;28;20388;-45
2023/07/03 10:48:23;;;;;;;15.35;5.47;;;;;;;13.89;100.00;101028.56;4974279;28;20030;-44
2023/07/03 10:50:50;;;;;;;17.73;5.80;;;;;;;13.87;100.00;101034.13;4974402;28;20034;-44
2023/07/03 10:54:00;;;;;;;18.25;6.78;;;;;;;13.77;100.00;101031.16;4974067;28;20468;-46
2023/07/03 10:56:31;;;;;;;19.48;5.93;;;;;;;13.73;100.00;101030.78;4965130;28;20038;-47
2023/07/03 10:59:06;;;;;;;18.45;6.30;;;;;;;13.78;100.00;101034.66;4975019;28;20038;-43
2023/07/03 11:01:50;;;;;;;;;;;;;;;13.79;100.00;101022.84;4978978;28;20042;-44
2023/07/03 11:04:22;;;;;;;22.45;7.13;;;;;;;13.74;100.00;101028.91;4978120;28;20385;-45
2023/07/03 11:06:57;;;;;;;13.27;5.78;;;;;;;13.83;100.00;101026.75;4978060;28;20027;-45
2023/07/03 11:10:01;;;;;;;13.23;4.95;;;;;;;13.83;100.00;101030.25;4977953;28;20516;-44
2023/07/03 11:12:55;;;;;;;10.13;4.53;;;;;;;13.70;100.00;101022.31;4909100;28;20123;-45
2023/07/03 11:15:51;;;;;;;16.20;4.60;;;;;;;13.78;100.00;101015.84;4977608;28;20495;-45
2023/07/03 11:18:48;;;;;;;9.40;3.90;;;;;;;13.78;100.00;101019.34;4961325;28;20046;-46
2023/07/03 11:21:29;;;;;;;14.85;4.63;;;;;;;13.75;100.00;101017.09;4977821;28;20483;-43
2023/07/03 11:24:09;;;;;;;10.20;3.63;;;;;;;13.78;100.00;101023.91;4977745;28;20043;-43
2023/07/03 11:26:40;;;;;;;7.93;4.03;;;;;;;13.76;100.00;101029.50;4977714;28;20383;-45
2023/07/03 11:29:09;;;;;;;7.20;3.25;;;;;;;13.77;100.00;101031.16;4977690;28;20019;-45